Time;durP1;ratioP1;P1;durP2;ratioP2;P2;SDS_P1;SDS_P2;PMS_P1;PMS_P2;Temp;Humidity;BMP_temperature;BMP_pressure;BME280_temperature;BME280_humidity;BME280_pressure;Samples;Min_cycle;Max_cycle;Signal;HPM_P1;HPM_P2
2021/12/15 00:01:00;;;;;;;;;;;15.00;61.90;;;;;;5100693;28;20134;-71
2021/12/15 00:03:26;;;;;;;;;;;15.00;61.90;;;;;;5082471;28;19979;-71
2021/12/15 00:05:52;;;;;;;;;;;15.00;61.90;;;;;;5100512;28;19908;-72
2021/12/15 00:08:18;;;;;;;;;;;15.00;61.80;;;;;;5100589;28;19908;-72
2021/12/15 00:10:44;;;;;;;;;;;15.00;61.80;;;;;;5100522;28;20235;-71
2021/12/15 00:13:12;;;;;;;;;;;15.00;61.80;;;;;;5100467;28;20334;-71
2021/12/15 00:15:38;;;;;;;;;;;15.00;61.80;;;;;;5100344;28;19971;-71
2021/12/15 00:18:03;;;;;;;;;;;15.00;61.90;;;;;;5100395;28;20158;-71
2021/12/15 00:20:29;;;;;;;;;;;15.00;61.80;;;;;;5082184;28;19927;-71
2021/12/15 00:22:55;;;;;;;;;;;15.00;61.90;;;;;;5099980;28;19915;-72
2021/12/15 00:25:23;;;;;;;;;;;15.00;61.80;;;;;;5100275;28;19947;-72
2021/12/15 00:27:49;;;;;;;;;;;15.00;61.80;;;;;;5100330;28;19906;-71
2021/12/15 00:30:15;;;;;;;;;;;15.00;61.80;;;;;;5082002;28;19943;-71
2021/12/15 00:32:41;;;;;;;;;;;15.00;61.80;;;;;;5100218;28;20190;-71
2021/12/15 00:35:07;;;;;;;;;;;15.00;61.90;;;;;;5100163;28;20227;-71
2021/12/15 00:37:33;;;;;;;;;;;15.00;61.80;;;;;;5100179;28;20208;-71
2021/12/15 00:39:58;;;;;;;;;;;15.00;61.90;;;;;;5100099;28;19919;-71
2021/12/15 00:42:24;;;;;;;;;;;15.00;61.90;;;;;;5100034;28;19900;-71
2021/12/15 00:44:50;;;;;;;;;;;15.00;61.90;;;;;;5100135;28;20131;-70
2021/12/15 00:47:15;;;;;;;;;;;15.00;62.00;;;;;;5100104;28;20081;-71
2021/12/15 00:49:41;;;;;;;;;;;15.00;61.90;;;;;;5100068;28;19931;-71
2021/12/15 00:52:07;;;;;;;;;;;15.00;61.90;;;;;;5099926;28;19978;-71
2021/12/15 00:54:33;;;;;;;;;;;15.00;61.80;;;;;;5099999;28;19908;-71
2021/12/15 00:56:59;;;;;;;;;;;15.00;61.80;;;;;;5099780;28;19916;-70
2021/12/15 00:59:25;;;;;;;;;;;15.00;61.70;;;;;;5099877;28;19952;-71
2021/12/15 01:01:51;;;;;;;;;;;15.00;61.90;;;;;;5099988;28;20108;-71
2021/12/15 01:04:17;;;;;;;;;;;15.00;61.90;;;;;;5099898;28;19912;-71
2021/12/15 01:06:45;;;;;;;;;;;15.00;61.90;;;;;;5099884;28;20212;-71
2021/12/15 01:09:13;;;;;;;;;;;15.00;61.90;;;;;;5099875;28;19915;-71
2021/12/15 01:19:55;;;;;;;;;;;15.00;61.80;;;;;;5017382;28;19912;-71
2021/12/15 01:22:27;;;;;;;;;;;15.00;61.90;;;;;;5064675;28;19908;-71
2021/12/15 01:24:54;;;;;;;;;;;15.00;61.90;;;;;;5099832;28;19935;-71
2021/12/15 01:27:20;;;;;;;;;;;15.00;61.80;;;;;;5099678;28;20266;-71
2021/12/15 01:29:45;;;;;;;;;;;15.00;61.90;;;;;;5099579;28;19908;-70
2021/12/15 01:32:11;;;;;;;;;;;15.00;61.80;;;;;;5099636;28;19908;-70
2021/12/15 01:34:37;;;;;;;;;;;15.00;61.90;;;;;;5099580;28;20230;-71
2021/12/15 01:37:02;;;;;;;;;;;15.00;61.90;;;;;;5099564;28;19946;-71
2021/12/15 01:39:28;;;;;;;;;;;15.00;61.80;;;;;;5099440;28;19919;-71
2021/12/15 01:41:55;;;;;;;;;;;15.00;61.90;;;;;;5099554;28;19900;-71
2021/12/15 01:47:13;;;;;;;;;;;15.00;61.80;;;;;;5099545;28;19914;-71
2021/12/15 01:49:43;;;;;;;;;;;15.00;61.90;;;;;;5094534;28;19912;-71
2021/12/15 01:52:08;;;;;;;;;;;15.00;61.90;;;;;;5099491;28;19946;-71
2021/12/15 01:54:35;;;;;;;;;;;15.00;61.80;;;;;;5099580;28;19900;-72
2021/12/15 01:57:01;;;;;;;;;;;15.00;61.80;;;;;;5099543;28;20150;-71
2021/12/15 01:59:27;;;;;;;;;;;15.00;61.80;;;;;;5103153;28;19915;-71
2021/12/15 02:01:53;;;;;;;;;;;15.00;61.80;;;;;;5103129;28;20231;-71
2021/12/15 02:04:19;;;;;;;;;;;15.00;61.80;;;;;;5103030;28;19904;-71
2021/12/15 02:06:45;;;;;;;;;;;15.00;61.80;;;;;;5103093;28;19900;-71
2021/12/15 02:09:24;;;;;;;;;;;15.00;61.90;;;;;;5102996;28;20144;-71
2021/12/15 02:11:49;;;;;;;;;;;15.00;61.90;;;;;;5103008;28;19900;-71
2021/12/15 02:14:15;;;;;;;;;;;15.00;61.90;;;;;;5102902;28;19981;-71
2021/12/15 02:16:41;;;;;;;;;;;15.00;61.90;;;;;;5102909;28;19956;-71
2021/12/15 02:19:06;;;;;;;;;;;15.00;61.80;;;;;;5102763;28;20096;-71
2021/12/15 02:21:32;;;;;;;;;;;15.00;61.90;;;;;;5102753;28;19908;-71
2021/12/15 02:23:59;;;;;;;;;;;15.00;61.90;;;;;;5102669;28;19980;-71
2021/12/15 02:26:35;;;;;;;;;;;15.00;61.90;;;;;;5102685;28;20180;-71
2021/12/15 02:29:02;;;;;;;;;;;15.00;61.80;;;;;;5102699;28;19946;-71
2021/12/15 02:39:35;;;;;;;;;;;15.00;61.90;;;;;;5102308;28;19961;-71
2021/12/15 02:42:00;;;;;;;;;;;15.00;61.80;;;;;;5102452;28;19912;-71
2021/12/15 02:44:26;;;;;;;;;;;15.00;61.90;;;;;;5084228;28;19908;-72
2021/12/15 02:46:53;;;;;;;;;;;15.00;62.00;;;;;;5084179;28;20293;-72
2021/12/15 02:49:20;;;;;;;;;;;15.00;62.00;;;;;;5102272;28;19936;-71
2021/12/15 02:51:47;;;;;;;;;;;15.00;61.90;;;;;;5102174;28;19908;-71
2021/12/15 02:54:13;;;;;;;;;;;15.00;61.90;;;;;;5102159;28;19915;-71
2021/12/15 02:56:40;;;;;;;;;;;15.00;61.90;;;;;;5102032;28;19900;-71
2021/12/15 02:59:07;;;;;;;;;;;15.00;61.90;;;;;;5083759;28;19975;-71
2021/12/15 03:01:53;;;;;;;;;;;15.00;61.90;;;;;;5083924;28;20315;-71
2021/12/15 03:04:30;;;;;;;;;;;15.00;61.90;;;;;;5101987;28;19915;-71
2021/12/15 03:07:13;;;;;;;;;;;15.00;61.90;;;;;;5101833;28;19967;-72
2021/12/15 03:15:22;;;;;;;;;;;15.00;61.90;;;;;;5101715;28;19983;-71
2021/12/15 03:18:14;;;;;;;;;;;15.00;62.00;;;;;;5083609;28;20142;-71
2021/12/15 03:20:41;;;;;;;;;;;15.00;62.00;;;;;;5096607;28;20245;-71
2021/12/15 03:23:07;;;;;;;;;;;15.00;61.90;;;;;;5101527;28;19912;-72
2021/12/15 03:25:33;;;;;;;;;;;15.00;62.00;;;;;;5101621;28;19970;-71
2021/12/15 03:33:37;;;;;;;;;;;15.00;61.90;;;;;;5101409;28;20172;-70
2021/12/15 03:36:08;;;;;;;;;;;15.00;61.90;;;;;;5101316;28;19908;-71
2021/12/15 03:38:35;;;;;;;;;;;15.00;62.00;;;;;;5082989;28;19904;-71
2021/12/15 03:41:02;;;;;;;;;;;15.00;62.00;;;;;;5101265;28;19930;-71
2021/12/15 03:43:28;;;;;;;;;;;15.00;62.10;;;;;;5101194;28;19908;-70
2021/12/15 03:46:02;;;;;;;;;;;15.00;62.00;;;;;;5101170;28;20153;-71
2021/12/15 03:48:29;;;;;;;;;;;15.00;61.90;;;;;;5101115;28;19915;-70
2021/12/15 03:50:56;;;;;;;;;;;15.00;61.90;;;;;;5101056;28;20278;-71
2021/12/15 03:53:22;;;;;;;;;;;15.00;61.90;;;;;;5100965;28;20200;-72
2021/12/15 03:55:48;;;;;;;;;;;15.00;62.00;;;;;;5101345;28;19908;-71
2021/12/15 03:58:14;;;;;;;;;;;15.00;62.00;;;;;;5082476;28;20266;-71
2021/12/15 04:00:45;;;;;;;;;;;15.00;62.00;;;;;;5100829;28;19900;-71
2021/12/15 04:03:36;;;;;;;;;;;15.00;62.00;;;;;;5100846;28;20219;-71
2021/12/15 04:06:03;;;;;;;;;;;15.00;61.90;;;;;;5095704;28;19908;-73
2021/12/15 04:08:30;;;;;;;;;;;15.00;61.80;;;;;;5100704;28;19970;-71
2021/12/15 04:10:57;;;;;;;;;;;15.00;61.90;;;;;;5100676;28;19965;-71
2021/12/15 04:13:23;;;;;;;;;;;15.00;61.90;;;;;;5100634;28;19941;-71
2021/12/15 04:16:05;;;;;;;;;;;15.00;61.90;;;;;;5100561;28;19943;-73
2021/12/15 04:18:30;;;;;;;;;;;15.00;61.90;;;;;;5100438;28;20111;-71
2021/12/15 04:20:56;;;;;;;;;;;15.00;62.00;;;;;;5100172;28;19935;-72
2021/12/15 04:23:22;;;;;;;;;;;15.00;61.90;;;;;;5082273;28;20167;-72
2021/12/15 04:25:49;;;;;;;;;;;15.00;62.00;;;;;;5082250;28;19908;-72
2021/12/15 04:28:19;;;;;;;;;;;15.00;61.90;;;;;;5100340;28;19967;-72
2021/12/15 04:30:50;;;;;;;;;;;15.00;61.90;;;;;;5100380;28;20236;-72
2021/12/15 04:33:24;;;;;;;;;;;15.00;61.90;;;;;;5100418;28;19975;-72
2021/12/15 04:35:53;;;;;;;;;;;15.00;62.00;;;;;;5100365;28;20431;-72
2021/12/15 04:38:20;;;;;;;;;;;15.00;61.80;;;;;;5100154;28;19908;-71
2021/12/15 04:40:46;;;;;;;;;;;15.00;61.90;;;;;;5100206;28;20403;-72
2021/12/15 04:43:12;;;;;;;;;;;15.00;62.00;;;;;;5100236;28;19940;-72
2021/12/15 04:45:37;;;;;;;;;;;15.00;61.90;;;;;;5100196;28;19983;-72
2021/12/15 04:48:03;;;;;;;;;;;15.00;61.90;;;;;;5100136;28;19908;-71
2021/12/15 04:50:30;;;;;;;;;;;15.00;61.80;;;;;;5100067;28;20150;-71
2021/12/15 04:52:59;;;;;;;;;;;15.00;61.80;;;;;;5100119;28;19914;-71
2021/12/15 04:55:27;;;;;;;;;;;15.00;61.80;;;;;;5081997;28;20089;-72
2021/12/15 04:57:52;;;;;;;;;;;15.00;61.90;;;;;;5099957;28;19924;-71
2021/12/15 05:00:21;;;;;;;;;;;15.00;61.90;;;;;;5099896;28;20257;-71
2021/12/15 05:02:47;;;;;;;;;;;15.00;61.80;;;;;;5099921;28;19950;-72
2021/12/15 05:05:13;;;;;;;;;;;15.00;61.80;;;;;;5100035;28;20187;-71
2021/12/15 05:07:39;;;;;;;;;;;15.00;62.00;;;;;;5099993;28;19971;-71
2021/12/15 05:10:05;;;;;;;;;;;15.00;61.90;;;;;;5099874;28;19907;-71
2021/12/15 05:12:31;;;;;;;;;;;15.00;61.90;;;;;;5100008;28;19908;-70
2021/12/15 05:14:57;;;;;;;;;;;15.00;61.90;;;;;;5099829;28;19907;-72
2021/12/15 05:17:22;;;;;;;;;;;15.00;61.90;;;;;;5099975;28;20305;-70
2021/12/15 05:19:49;;;;;;;;;;;15.00;61.90;;;;;;5099810;28;19912;-71
2021/12/15 05:22:14;;;;;;;;;;;15.00;61.90;;;;;;5100168;28;19936;-71
2021/12/15 05:24:42;;;;;;;;;;;15.00;62.00;;;;;;5081766;28;19945;-71
2021/12/15 05:27:12;;;;;;;;;;;15.00;62.00;;;;;;5099768;28;19908;-71
2021/12/15 05:29:39;;;;;;;;;;;15.00;61.90;;;;;;5099760;28;19915;-71
2021/12/15 05:32:05;;;;;;;;;;;15.00;61.90;;;;;;5100014;28;19900;-71
2021/12/15 05:34:31;;;;;;;;;;;15.00;61.80;;;;;;5103713;28;19908;-71
2021/12/15 05:36:57;;;;;;;;;;;15.00;61.90;;;;;;5103610;28;20044;-71
2021/12/15 05:39:24;;;;;;;;;;;15.00;62.10;;;;;;5103471;28;20227;-71
2021/12/15 05:41:50;;;;;;;;;;;15.00;62.00;;;;;;5103539;28;19900;-71
2021/12/15 05:44:15;;;;;;;;;;;15.00;61.80;;;;;;5103385;28;19908;-71
2021/12/15 05:46:42;;;;;;;;;;;15.00;61.80;;;;;;5103448;28;19958;-71
2021/12/15 05:49:07;;;;;;;;;;;15.00;61.80;;;;;;5103303;28;19973;-71
2021/12/15 05:51:33;;;;;;;;;;;15.00;61.80;;;;;;5103353;28;19949;-71
2021/12/15 05:53:59;;;;;;;;;;;15.00;62.00;;;;;;5103290;28;19908;-71
2021/12/15 05:56:24;;;;;;;;;;;15.00;61.90;;;;;;5103162;28;20192;-71
2021/12/15 05:58:50;;;;;;;;;;;15.00;62.00;;;;;;5103030;28;19927;-71
2021/12/15 06:01:17;;;;;;;;;;;15.00;61.80;;;;;;5103185;28;19908;-71
2021/12/15 06:03:43;;;;;;;;;;;15.00;61.90;;;;;;5103065;28;19907;-72
2021/12/15 06:06:08;;;;;;;;;;;15.00;61.80;;;;;;5103038;28;20188;-71
2021/12/15 06:08:34;;;;;;;;;;;15.00;61.80;;;;;;5102910;28;20263;-71
2021/12/15 06:11:00;;;;;;;;;;;15.00;61.80;;;;;;5103026;28;19904;-72
2021/12/15 06:13:27;;;;;;;;;;;15.00;61.80;;;;;;5102869;28;19915;-71
2021/12/15 06:15:54;;;;;;;;;;;15.00;61.90;;;;;;5102914;28;20093;-70
2021/12/15 06:18:20;;;;;;;;;;;15.00;61.90;;;;;;5102754;28;19904;-71
2021/12/15 06:20:50;;;;;;;;;;;15.00;61.90;;;;;;5103035;28;19908;-71
2021/12/15 06:23:18;;;;;;;;;;;15.00;61.90;;;;;;5102617;28;19908;-72
2021/12/15 06:25:45;;;;;;;;;;;15.00;62.00;;;;;;5102679;28;19990;-72
2021/12/15 06:28:10;;;;;;;;;;;15.00;61.90;;;;;;5084336;28;19978;-72
2021/12/15 06:30:37;;;;;;;;;;;15.00;62.00;;;;;;5084391;28;20323;-71
2021/12/15 06:33:03;;;;;;;;;;;15.00;62.60;;;;;;5102479;28;20223;-73
2021/12/15 06:35:28;;;;;;;;;;;15.00;62.00;;;;;;5102430;28;19908;-72
2021/12/15 06:37:54;;;;;;;;;;;15.00;62.00;;;;;;5102281;28;19926;-73
2021/12/15 06:40:19;;;;;;;;;;;15.00;61.90;;;;;;5102279;28;19908;-72
2021/12/15 06:42:45;;;;;;;;;;;15.00;62.00;;;;;;5102145;28;20112;-72
2021/12/15 06:45:14;;;;;;;;;;;15.00;61.90;;;;;;5102048;28;19918;-72
2021/12/15 06:58:36;;;;;;;;;;;15.00;61.70;;;;;;5101716;28;19981;-71
2021/12/15 07:01:03;;;;;;;;;;;15.00;61.80;;;;;;5101871;28;19911;-70
2021/12/15 07:03:29;;;;;;;;;;;15.00;61.90;;;;;;5101757;28;19900;-71
2021/12/15 07:05:58;;;;;;;;;;;15.00;61.90;;;;;;5101647;28;19900;-71
2021/12/15 07:08:26;;;;;;;;;;;15.00;62.00;;;;;;5101638;28;19908;-71
2021/12/15 07:10:53;;;;;;;;;;;15.00;61.90;;;;;;5101687;28;20216;-70
2021/12/15 07:13:20;;;;;;;;;;;15.00;62.00;;;;;;5101670;28;19908;-71
2021/12/15 07:15:47;;;;;;;;;;;15.00;62.00;;;;;;5101541;28;19954;-70
2021/12/15 07:18:15;;;;;;;;;;;15.00;62.00;;;;;;5101467;28;19907;-71
2021/12/15 07:23:10;;;;;;;;;;;15.00;61.90;;;;;;5101285;28;20102;-71
2021/12/15 07:25:37;;;;;;;;;;;15.00;61.80;;;;;;5101412;28;19953;-71
2021/12/15 07:28:03;;;;;;;;;;;15.00;61.90;;;;;;5101362;28;19946;-70
2021/12/15 07:30:29;;;;;;;;;;;15.00;62.00;;;;;;5101273;28;19908;-71
2021/12/15 07:32:55;;;;;;;;;;;15.00;61.90;;;;;;5101276;28;19967;-72
2021/12/15 07:35:21;;;;;;;;;;;15.00;61.90;;;;;;5101137;28;20153;-71
2021/12/15 07:37:47;;;;;;;;;;;15.00;61.90;;;;;;5101145;28;19908;-71
2021/12/15 07:40:20;;;;;;;;;;;15.00;61.80;;;;;;5101033;28;19904;-71
2021/12/15 07:43:02;;;;;;;;;;;15.00;61.70;;;;;;5101003;28;19900;-71
2021/12/15 07:45:29;;;;;;;;;;;15.00;61.90;;;;;;5100926;28;19935;-71
2021/12/15 07:47:57;;;;;;;;;;;15.00;61.80;;;;;;5100923;28;20207;-72
2021/12/15 07:50:23;;;;;;;;;;;15.00;61.90;;;;;;5082598;28;19908;-71
2021/12/15 07:52:49;;;;;;;;;;;15.00;61.90;;;;;;5100838;28;19994;-72
2021/12/15 07:55:16;;;;;;;;;;;15.00;61.80;;;;;;5100191;28;19899;-71
2021/12/15 07:57:41;;;;;;;;;;;15.00;61.80;;;;;;5100627;28;19994;-72
2021/12/15 08:00:08;;;;;;;;;;;15.00;61.80;;;;;;5100593;28;19911;-71
2021/12/15 08:02:34;;;;;;;;;;;15.00;61.80;;;;;;5100718;28;19950;-71
2021/12/15 08:04:59;;;;;;;;;;;15.00;61.80;;;;;;5100587;28;19900;-71
2021/12/15 08:07:25;;;;;;;;;;;15.00;61.80;;;;;;5100566;28;19966;-71
2021/12/15 08:09:50;;;;;;;;;;;15.00;61.80;;;;;;5100599;28;20038;-71
2021/12/15 08:12:16;;;;;;;;;;;15.00;61.80;;;;;;5100397;28;20159;-71
2021/12/15 08:14:42;;;;;;;;;;;15.10;61.80;;;;;;5100434;28;19907;-70
2021/12/15 08:17:07;;;;;;;;;;;15.00;61.80;;;;;;5082121;28;20247;-72
2021/12/15 08:19:33;;;;;;;;;;;15.00;61.80;;;;;;5100273;28;19912;-71
2021/12/15 08:21:59;;;;;;;;;;;15.10;61.80;;;;;;5100365;28;19908;-71
2021/12/15 08:24:24;;;;;;;;;;;15.00;61.70;;;;;;5100171;28;19899;-71
2021/12/15 08:26:50;;;;;;;;;;;15.00;61.70;;;;;;5100237;28;19969;-72
2021/12/15 08:29:15;;;;;;;;;;;15.10;61.70;;;;;;5100225;28;20178;-71
2021/12/15 08:31:41;;;;;;;;;;;15.10;61.70;;;;;;5100261;28;19912;-72
2021/12/15 08:34:08;;;;;;;;;;;15.10;61.80;;;;;;5100075;28;19939;-71
2021/12/15 08:36:34;;;;;;;;;;;15.10;61.70;;;;;;5100109;28;19908;-71
2021/12/15 08:39:00;;;;;;;;;;;15.10;61.60;;;;;;5081890;28;19911;-72
2021/12/15 08:41:26;;;;;;;;;;;15.10;61.60;;;;;;5081867;28;19912;-71
2021/12/15 08:43:52;;;;;;;;;;;15.10;62.30;;;;;;5100039;28;19934;-71
2021/12/15 08:46:19;;;;;;;;;;;15.10;61.50;;;;;;5099927;28;20188;-71
2021/12/15 08:48:46;;;;;;;;;;;15.10;61.50;;;;;;5099931;28;19900;-72
2021/12/15 08:51:14;;;;;;;;;;;15.10;61.50;;;;;;5099962;28;19915;-71
2021/12/15 08:53:41;;;;;;;;;;;15.10;61.50;;;;;;5099931;28;19935;-71
2021/12/15 08:56:07;;;;;;;;;;;15.20;61.40;;;;;;5099891;28;20434;-70
2021/12/15 08:58:33;;;;;;;;;;;15.20;61.40;;;;;;5099608;28;19916;-71
2021/12/15 09:01:00;;;;;;;;;;;15.20;61.30;;;;;;5099804;28;19908;-71
2021/12/15 09:03:26;;;;;;;;;;;15.20;61.30;;;;;;5099791;28;19907;-69
2021/12/15 09:05:52;;;;;;;;;;;15.20;61.30;;;;;;5099821;28;19908;-72
2021/12/15 09:08:19;;;;;;;;;;;15.20;61.40;;;;;;5083995;28;19912;-71
2021/12/15 09:10:45;;;;;;;;;;;15.20;61.30;;;;;;5103890;28;19906;-71
2021/12/15 09:13:11;;;;;;;;;;;15.20;61.30;;;;;;5103935;28;19908;-72
2021/12/15 09:15:37;;;;;;;;;;;15.20;61.40;;;;;;5103847;28;20111;-71
2021/12/15 09:18:03;;;;;;;;;;;15.20;61.40;;;;;;5103821;28;19908;-71
2021/12/15 09:20:32;;;;;;;;;;;15.20;61.10;;;;;;5103714;28;19988;-71
2021/12/15 09:22:59;;;;;;;;;;;15.20;61.20;;;;;;5085471;28;19939;-72
2021/12/15 09:25:25;;;;;;;;;;;15.20;61.20;;;;;;5103661;28;19906;-71
2021/12/15 09:27:51;;;;;;;;;;;15.20;61.10;;;;;;5103610;28;19908;-70
2021/12/15 09:30:19;;;;;;;;;;;15.20;61.20;;;;;;5103565;28;20220;-71
2021/12/15 09:32:45;;;;;;;;;;;15.30;61.10;;;;;;5103473;28;20090;-72
2021/12/15 09:35:11;;;;;;;;;;;15.30;61.00;;;;;;5103502;28;19907;-71
2021/12/15 09:37:37;;;;;;;;;;;15.30;61.00;;;;;;5103441;28;19908;-70
2021/12/15 09:40:06;;;;;;;;;;;15.30;60.90;;;;;;5103313;28;19983;-71
2021/12/15 09:42:36;;;;;;;;;;;15.30;60.70;;;;;;5085091;28;19939;-71
2021/12/15 09:45:20;;;;;;;;;;;15.30;60.60;;;;;;5103328;28;19911;-72
2021/12/15 10:07:03;;;;;;;;;;;15.50;60.20;;;;;;5103128;28;19965;-71
2021/12/15 10:17:43;;;;;;;;;;;15.50;60.30;;;;;;5102672;28;19961;-72
2021/12/15 10:20:12;;;;;;;;;;;15.50;60.20;;;;;;5102368;28;19912;-72
2021/12/15 10:22:45;;;;;;;;;;;15.50;59.70;;;;;;5102522;28;19911;-72
2021/12/15 10:25:10;;;;;;;;;;;15.50;59.30;;;;;;5102497;28;19995;-71
2021/12/15 10:27:42;;;;;;;;;;;15.60;59.40;;;;;;5084359;28;20380;-71
2021/12/15 10:30:08;;;;;;;;;;;15.60;59.50;;;;;;5102329;28;19907;-71
2021/12/15 10:32:34;;;;;;;;;;;15.50;59.80;;;;;;5102383;28;19908;-70
2021/12/15 10:35:03;;;;;;;;;;;15.60;60.40;;;;;;5102291;28;19974;-70
2021/12/15 10:37:29;;;;;;;;;;;15.60;60.30;;;;;;5102267;28;20018;-71
2021/12/15 10:40:11;;;;;;;;;;;15.60;60.30;;;;;;5102150;28;20197;-71
2021/12/15 10:42:36;;;;;;;;;;;15.60;60.50;;;;;;5102035;28;19900;-71
2021/12/15 10:45:07;;;;;;;;;;;15.60;59.80;;;;;;5102162;28;19915;-71
2021/12/15 10:47:39;;;;;;;;;;;15.60;60.10;;;;;;5102114;28;19975;-71
2021/12/15 10:50:05;;;;;;;;;;;15.60;59.40;;;;;;5102022;28;20211;-71
2021/12/15 10:52:32;;;;;;;;;;;15.60;59.40;;;;;;5102009;28;19908;-71
2021/12/15 10:55:02;;;;;;;;;;;15.60;59.80;;;;;;5101878;28;19908;-71
2021/12/15 10:57:34;;;;;;;;;;;15.60;60.20;;;;;;5101829;28;19928;-72
2021/12/15 11:00:00;;;;;;;;;;;15.60;60.10;;;;;;5101769;28;19904;-71
2021/12/15 11:02:32;;;;;;;;;;;15.60;60.20;;;;;;5083583;28;19914;-72
2021/12/15 11:05:05;;;;;;;;;;;15.60;60.00;;;;;;5101714;28;19908;-71
2021/12/15 11:07:32;;;;;;;;;;;15.60;60.60;;;;;;5083814;28;19908;-71
2021/12/15 11:10:04;;;;;;;;;;;15.60;60.00;;;;;;5101639;28;19908;-71
2021/12/15 11:12:36;;;;;;;;;;;15.60;59.60;;;;;;5101699;28;19907;-72
2021/12/15 11:15:04;;;;;;;;;;;15.60;59.30;;;;;;5101631;28;19908;-71
2021/12/15 11:17:31;;;;;;;;;;;15.60;59.10;;;;;;5101508;28;19935;-71
2021/12/15 11:19:57;;;;;;;;;;;15.60;59.90;;;;;;5101450;28;19919;-71
2021/12/15 11:22:41;;;;;;;;;;;15.60;60.10;;;;;;5101449;28;20276;-71
2021/12/15 11:25:27;;;;;;;;;;;15.60;60.10;;;;;;5101322;28;19973;-71
2021/12/15 11:28:01;;;;;;;;;;;15.60;60.60;;;;;;5101214;28;19907;-71
2021/12/15 11:30:32;;;;;;;;;;;15.60;60.10;;;;;;5100422;28;19915;-70
2021/12/15 11:32:59;;;;;;;;;;;15.60;60.10;;;;;;5101194;28;19900;-71
2021/12/15 11:35:30;;;;;;;;;;;15.60;59.70;;;;;;5101169;28;19907;-72
2021/12/15 11:37:58;;;;;;;;;;;15.60;59.00;;;;;;5082970;28;20372;-71
2021/12/15 11:40:29;;;;;;;;;;;15.60;59.90;;;;;;5101024;28;19923;-71
2021/12/15 11:42:55;;;;;;;;;;;15.60;59.80;;;;;;5100962;28;19966;-71
2021/12/15 11:45:22;;;;;;;;;;;15.60;60.20;;;;;;5101057;28;19908;-71
2021/12/15 11:47:47;;;;;;;;;;;15.60;60.30;;;;;;5100900;28;19915;-71
2021/12/15 11:50:15;;;;;;;;;;;15.60;60.20;;;;;;5100930;28;19899;-71
2021/12/15 11:52:42;;;;;;;;;;;15.60;60.30;;;;;;5100851;28;19908;-72
2021/12/15 11:55:20;;;;;;;;;;;15.60;60.60;;;;;;5100752;28;19900;-71
2021/12/15 11:57:46;;;;;;;;;;;15.60;60.40;;;;;;5100591;28;20423;-72
2021/12/15 12:00:14;;;;;;;;;;;15.60;58.80;;;;;;5082635;28;19912;-71
2021/12/15 12:02:42;;;;;;;;;;;15.60;60.20;;;;;;5100743;28;19900;-71
2021/12/15 12:05:10;;;;;;;;;;;15.60;60.40;;;;;;5100635;28;19912;-71
2021/12/15 12:07:37;;;;;;;;;;;15.60;60.00;;;;;;5100578;28;20242;-71
2021/12/15 12:10:06;;;;;;;;;;;15.60;60.30;;;;;;5100742;28;20013;-71
2021/12/15 12:12:38;;;;;;;;;;;15.60;60.60;;;;;;5100438;28;19981;-71
2021/12/15 12:15:05;;;;;;;;;;;15.60;60.40;;;;;;5100522;28;19935;-70
2021/12/15 12:17:33;;;;;;;;;;;15.60;60.50;;;;;;5100430;28;19939;-71
2021/12/15 12:20:10;;;;;;;;;;;15.60;59.80;;;;;;5100280;28;19915;-70
2021/12/15 12:22:36;;;;;;;;;;;15.60;59.20;;;;;;5100251;28;19908;-71
2021/12/15 12:25:10;;;;;;;;;;;15.60;59.80;;;;;;5099982;28;19908;-70
2021/12/15 12:27:36;;;;;;;;;;;15.60;59.20;;;;;;5100312;28;19945;-72
2021/12/15 12:30:05;;;;;;;;;;;15.70;60.30;;;;;;5100251;28;20218;-71
2021/12/15 12:32:31;;;;;;;;;;;15.60;60.50;;;;;;5100205;28;19916;-71
2021/12/15 12:34:57;;;;;;;;;;;15.60;60.10;;;;;;5100135;28;19908;-70
2021/12/15 12:37:23;;;;;;;;;;;15.60;60.40;;;;;;5100123;28;19941;-70
2021/12/15 12:39:53;;;;;;;;;;;15.60;60.10;;;;;;5099925;28;19943;-71
2021/12/15 12:42:30;;;;;;;;;;;15.60;60.20;;;;;;5099814;28;19908;-71
2021/12/15 12:45:07;;;;;;;;;;;15.60;59.60;;;;;;5099993;28;19939;-71
2021/12/15 12:47:39;;;;;;;;;;;15.60;60.20;;;;;;5099973;28;19904;-70
2021/12/15 12:50:34;;;;;;;;;;;15.70;59.90;;;;;;5099972;28;19900;-71
2021/12/15 13:01:25;;;;;;;;;;;15.70;60.50;;;;;;5100155;28;20207;-70
2021/12/15 13:03:55;;;;;;;;;;;15.70;60.40;;;;;;5077864;28;19975;-70
2021/12/15 13:06:22;;;;;;;;;;;15.70;59.60;;;;;;5099782;28;19999;-72
2021/12/15 13:08:48;;;;;;;;;;;15.70;59.40;;;;;;5099741;28;19900;-71
2021/12/15 13:11:35;;;;;;;;;;;15.70;58.50;;;;;;5099823;28;20108;-70
2021/12/15 13:14:03;;;;;;;;;;;15.70;58.80;;;;;;5099737;28;20065;-72
2021/12/15 13:16:29;;;;;;;;;;;15.70;58.60;;;;;;5099727;28;19946;-72
2021/12/15 13:18:57;;;;;;;;;;;15.70;59.60;;;;;;5099676;28;19904;-73
2021/12/15 13:21:42;;;;;;;;;;;15.70;59.90;;;;;;5099773;28;19907;-72
2021/12/15 13:28:39;;;;;;;;;;;15.70;60.00;;;;;;5099658;28;19930;-71
2021/12/15 13:30:01;;;;;;;;;;;15.70;60.60;;;;;;5099662;28;19957;-71
2021/12/15 13:32:30;;;;;;;;;;;15.70;60.40;;;;;;5099653;28;19908;-71
2021/12/15 13:34:55;;;;;;;;;;;15.70;59.60;;;;;;5099640;28;19900;-72
2021/12/15 13:37:39;;;;;;;;;;;15.70;59.00;;;;;;5081445;28;19914;-71
2021/12/15 13:40:09;;;;;;;;;;;15.70;58.80;;;;;;5099475;28;20207;-72
2021/12/15 13:42:52;;;;;;;;;;;15.70;59.60;;;;;;5081393;28;20099;-70
2021/12/15 13:45:29;;;;;;;;;;;15.70;60.20;;;;;;5099556;28;19904;-70
2021/12/15 13:47:55;;;;;;;;;;;15.70;60.20;;;;;;5081354;28;19908;-72
2021/12/15 13:50:21;;;;;;;;;;;15.70;61.10;;;;;;5099506;28;19907;-72
2021/12/15 13:52:54;;;;;;;;;;;15.70;60.40;;;;;;5099490;28;19980;-72
2021/12/15 13:55:22;;;;;;;;;;;15.70;60.60;;;;;;5085070;28;19931;-71
2021/12/15 13:57:50;;;;;;;;;;;15.70;59.20;;;;;;5103024;28;19919;-72
2021/12/15 14:00:19;;;;;;;;;;;15.70;59.40;;;;;;5103012;28;19912;-72
2021/12/15 14:02:53;;;;;;;;;;;15.70;59.80;;;;;;5103164;28;19935;-73
2021/12/15 14:05:38;;;;;;;;;;;15.70;59.10;;;;;;5103026;28;19942;-71
2021/12/15 14:08:11;;;;;;;;;;;15.70;60.20;;;;;;5102987;28;19908;-70
2021/12/15 14:10:39;;;;;;;;;;;15.70;60.20;;;;;;5102879;28;19976;-71
2021/12/15 14:13:05;;;;;;;;;;;15.70;60.30;;;;;;5102946;28;20018;-71
2021/12/15 14:15:37;;;;;;;;;;;15.70;60.60;;;;;;5102848;28;19908;-72
2021/12/15 14:18:05;;;;;;;;;;;15.70;60.60;;;;;;5102835;28;19915;-71
2021/12/15 14:20:32;;;;;;;;;;;15.70;59.80;;;;;;5102671;28;19919;-71
2021/12/15 14:22:59;;;;;;;;;;;15.70;60.60;;;;;;5102766;28;20196;-71
2021/12/15 14:25:25;;;;;;;;;;;15.70;59.90;;;;;;5102678;28;20194;-71
2021/12/15 14:27:50;;;;;;;;;;;15.70;59.30;;;;;;5102708;28;19900;-71
2021/12/15 14:30:17;;;;;;;;;;;15.70;58.70;;;;;;5102583;28;19915;-71
2021/12/15 14:32:44;;;;;;;;;;;15.70;60.40;;;;;;5102556;28;19900;-71
2021/12/15 14:35:19;;;;;;;;;;;15.60;60.60;;;;;;5102494;28;19900;-71
2021/12/15 14:37:45;;;;;;;;;;;15.60;60.50;;;;;;5102405;28;19908;-71
2021/12/15 14:40:11;;;;;;;;;;;15.60;60.50;;;;;;5102368;28;20021;-72
2021/12/15 14:42:41;;;;;;;;;;;15.60;60.60;;;;;;5102407;28;19908;-71
2021/12/15 14:45:08;;;;;;;;;;;15.60;60.50;;;;;;5102321;28;19929;-72
2021/12/15 14:47:35;;;;;;;;;;;15.60;60.80;;;;;;5102308;28;19908;-72
2021/12/15 14:50:05;;;;;;;;;;;15.60;60.80;;;;;;5102286;28;19915;-70
2021/12/15 14:52:32;;;;;;;;;;;15.50;60.90;;;;;;5102206;28;19965;-71
2021/12/15 14:55:00;;;;;;;;;;;15.50;60.70;;;;;;5083964;28;19915;-70
2021/12/15 14:57:27;;;;;;;;;;;15.50;60.90;;;;;;5101972;28;20517;-71
2021/12/15 14:59:55;;;;;;;;;;;15.50;60.80;;;;;;5102010;28;19900;-71
2021/12/15 15:02:31;;;;;;;;;;;15.50;60.80;;;;;;5102047;28;19908;-71
2021/12/15 15:05:01;;;;;;;;;;;15.50;61.00;;;;;;5101929;28;19970;-71
2021/12/15 15:07:29;;;;;;;;;;;15.50;61.00;;;;;;5101922;28;20108;-71
2021/12/15 15:09:57;;;;;;;;;;;15.50;61.20;;;;;;5101876;28;19931;-71
2021/12/15 15:12:24;;;;;;;;;;;15.50;61.20;;;;;;5101842;28;20196;-72
2021/12/15 15:14:52;;;;;;;;;;;15.50;61.20;;;;;;5102368;28;19900;-70
2021/12/15 15:17:24;;;;;;;;;;;15.50;61.10;;;;;;5101699;28;19916;-70
2021/12/15 15:19:52;;;;;;;;;;;15.50;61.20;;;;;;5101652;28;19904;-70
2021/12/15 15:22:19;;;;;;;;;;;15.50;61.30;;;;;;5101617;28;19900;-72
2021/12/15 15:24:47;;;;;;;;;;;15.50;61.30;;;;;;5101601;28;20137;-72
2021/12/15 15:27:14;;;;;;;;;;;15.40;61.30;;;;;;5083315;28;20096;-71
2021/12/15 15:29:45;;;;;;;;;;;15.40;61.20;;;;;;5101444;28;19927;-71
2021/12/15 15:32:17;;;;;;;;;;;15.50;61.30;;;;;;5101369;28;19957;-70
2021/12/15 15:34:43;;;;;;;;;;;15.40;61.20;;;;;;5101404;28;19908;-71
2021/12/15 15:37:14;;;;;;;;;;;15.50;61.30;;;;;;5101308;28;19915;-70
2021/12/15 15:39:40;;;;;;;;;;;15.50;61.30;;;;;;5101241;28;19911;-71
2021/12/15 15:42:06;;;;;;;;;;;15.40;61.20;;;;;;5101236;28;19979;-71
2021/12/15 15:44:35;;;;;;;;;;;15.40;61.30;;;;;;5101142;28;19966;-71